CES8667 BIKF-EGLL
Flight info
| Callsign | CES8667 |
|---|---|
| Flight time | N/A |
| Altitude | 37000 |
| Route | OSKUM3A OSKUM DCT RATSU DCT BARKU DCT ORSUM DCT GOW DCT ELBUS DCT NAVSO DCT AKOMU DCT VAMEB DCT NUGRA |
| Aircraft | B77W/H-SDE1E2E3FGHIJ2J3J4J5M1RWXY/LB1D1 |
Departure
| Time | 2026-05-07 15:38 |
|---|---|
| Airport | Keflavik International Airport (BIKF) |
Arrival
| Time | N/A |
|---|---|
| Airport | London Heathrow Airport (EGLL) |
| Time | Latitude | Longitude | Altitude | Speed | Heading |
|---|---|---|---|---|---|
| 2026-05-07 15:33 | 63.97011 | -22.60941 | 156 ft | 12 kts | 180° |
| 2026-05-07 15:33 | 63.96887 | -22.60939 | 151 ft | 24 kts | 180° |
| 2026-05-07 15:33 | 63.96753 | -22.60941 | 146 ft | 19 kts | 180° |
| 2026-05-07 15:34 | 63.96622 | -22.60942 | 141 ft | 14 kts | 180° |
| 2026-05-07 15:34 | 63.96558 | -22.60942 | 140 ft | 19 kts | 180° |
| 2026-05-07 15:34 | 63.96477 | -22.60884 | 141 ft | 12 kts | 123° |
| 2026-05-07 15:34 | 63.96465 | -22.60806 | 143 ft | 2 kts | 98° |
| 2026-05-07 15:35 | 63.96462 | -22.60744 | 145 ft | 6 kts | 94° |
| 2026-05-07 15:35 | 63.96466 | -22.60630 | 148 ft | 9 kts | 70° |
| 2026-05-07 15:35 | 63.96526 | -22.60546 | 151 ft | 12 kts | 9° |
| 2026-05-07 15:35 | 63.96561 | -22.60543 | 152 ft | 0 kts | 1° |
| 2026-05-07 15:36 | 63.96562 | -22.60543 | 152 ft | 0 kts | 1° |
| 2026-05-07 15:36 | 63.96575 | -22.60542 | 153 ft | 0 kts | 1° |
| 2026-05-07 15:37 | 63.96577 | -22.60542 | 153 ft | 4 kts | 1° |
| 2026-05-07 15:37 | 63.96589 | -22.60542 | 153 ft | 1 kts | 1° |
| 2026-05-07 15:37 | 63.96597 | -22.60541 | 153 ft | 1 kts | 1° |
| 2026-05-07 15:37 | 63.96664 | -22.60538 | 156 ft | 37 kts | 1° |
| 2026-05-07 15:38 | 63.97196 | -22.60539 | 170 ft | 114 kts | 360° |
| 2026-05-07 15:38 | 63.98201 | -22.60507 | 205 ft | 171 kts | 2° |
| 2026-05-07 15:38 | 63.99420 | -22.60491 | 782 ft | 180 kts | 0° |
| 2026-05-07 15:38 | 64.00681 | -22.60476 | 1696 ft | 179 kts | 2° |
| 2026-05-07 15:39 | 64.01914 | -22.60439 | 2703 ft | 180 kts | 3° |
| 2026-05-07 15:39 | 64.03258 | -22.60373 | 3158 ft | 207 kts | 7° |
| 2026-05-07 15:39 | 64.04681 | -22.59170 | 3642 ft | 231 kts | 37° |
| 2026-05-07 15:39 | 64.05751 | -22.56463 | 4806 ft | 232 kts | 57° |
| 2026-05-07 15:40 | 64.06350 | -22.53090 | 6020 ft | 230 kts | 79° |
| 2026-05-07 15:40 | 64.06434 | -22.49361 | 6885 ft | 239 kts | 88° |
| 2026-05-07 15:40 | 64.06404 | -22.45543 | 7790 ft | 249 kts | 88° |
| 2026-05-07 15:40 | 64.06243 | -22.41570 | 8581 ft | 259 kts | 103° |
| 2026-05-07 15:41 | 64.05424 | -22.37786 | 9216 ft | 275 kts | 117° |
| 2026-05-07 15:41 | 64.04459 | -22.33964 | 10145 ft | 282 kts | 116° |
| 2026-05-07 15:41 | 64.03465 | -22.30005 | 10869 ft | 296 kts | 117° |
| 2026-05-07 15:41 | 64.02396 | -22.25745 | 11187 ft | 326 kts | 117° |
| 2026-05-07 15:42 | 64.01219 | -22.21049 | 11429 ft | 357 kts | 117° |
| 2026-05-07 15:42 | 63.99955 | -22.16022 | 12095 ft | 372 kts | 117° |
| 2026-05-07 15:42 | 63.98657 | -22.10866 | 13052 ft | 381 kts | 117° |
| 2026-05-07 15:42 | 63.97330 | -22.05598 | 14050 ft | 387 kts | 117° |
| 2026-05-07 15:43 | 63.95986 | -22.00265 | 15010 ft | 392 kts | 118° |
| 2026-05-07 15:43 | 63.94620 | -21.94850 | 15957 ft | 398 kts | 118° |
| 2026-05-07 15:43 | 63.94034 | -21.92530 | 16354 ft | 400 kts | 118° |
| 2026-05-07 15:48 | 63.93334 | -21.89762 | 16810 ft | 403 kts | 118° |
| 2026-05-07 15:48 | 63.91925 | -21.84207 | 17762 ft | 409 kts | 118° |
| 2026-05-07 15:49 | 63.90501 | -21.78605 | 18654 ft | 414 kts | 118° |
| 2026-05-07 15:49 | 63.89068 | -21.72986 | 19435 ft | 419 kts | 118° |
| 2026-05-07 15:49 | 63.87585 | -21.67176 | 20248 ft | 424 kts | 118° |
| 2026-05-07 15:49 | 63.86096 | -21.61366 | 21018 ft | 429 kts | 118° |
| 2026-05-07 15:50 | 63.84588 | -21.55495 | 21802 ft | 434 kts | 118° |
| 2026-05-07 15:50 | 63.83054 | -21.49544 | 22269 ft | 446 kts | 118° |
| 2026-05-07 15:50 | 63.81462 | -21.43381 | 22655 ft | 458 kts | 118° |
| 2026-05-07 15:50 | 63.79840 | -21.37115 | 23172 ft | 466 kts | 118° |
| 2026-05-07 15:51 | 63.78191 | -21.30764 | 23755 ft | 472 kts | 118° |
| 2026-05-07 15:51 | 63.75837 | -21.19704 | 24596 ft | 475 kts | 101° |
| 2026-05-07 15:51 | 63.74997 | -21.04908 | 25634 ft | 479 kts | 94° |
| 2026-05-07 15:51 | 63.74179 | -20.89881 | 26487 ft | 488 kts | 95° |
| 2026-05-07 15:52 | 63.73210 | -20.74617 | 27249 ft | 496 kts | 96° |
| 2026-05-07 15:52 | 63.72190 | -20.59181 | 27907 ft | 503 kts | 96° |
| 2026-05-07 15:52 | 63.71080 | -20.43530 | 28476 ft | 510 kts | 101° |
| 2026-05-07 15:52 | 63.68407 | -20.28557 | 28959 ft | 520 kts | 113° |
| 2026-05-07 15:53 | 63.65190 | -20.13984 | 29679 ft | 521 kts | 114° |
| 2026-05-07 15:53 | 63.62022 | -19.99408 | 30428 ft | 519 kts | 113° |
| 2026-05-07 15:53 | 63.58940 | -19.84727 | 31006 ft | 519 kts | 112° |
| 2026-05-07 15:53 | 63.55899 | -19.70107 | 31628 ft | 518 kts | 113° |
| 2026-05-07 15:54 | 63.52844 | -19.55512 | 32207 ft | 519 kts | 113° |
| 2026-05-07 15:54 | 63.49765 | -19.40943 | 32816 ft | 518 kts | 114° |
| 2026-05-07 15:54 | 63.46681 | -19.26484 | 33382 ft | 518 kts | 114° |
| 2026-05-07 15:54 | 63.43550 | -19.11905 | 33966 ft | 517 kts | 114° |
| 2026-05-07 15:55 | 63.40434 | -18.97497 | 34445 ft | 517 kts | 115° |
| 2026-05-07 15:55 | 63.37293 | -18.83063 | 34844 ft | 518 kts | 115° |
| 2026-05-07 15:55 | 63.34147 | -18.68705 | 35263 ft | 517 kts | 115° |
| 2026-05-07 15:55 | 63.30999 | -18.54437 | 35655 ft | 517 kts | 115° |
| 2026-05-07 15:56 | 63.27799 | -18.40029 | 36006 ft | 518 kts | 115° |
| 2026-05-07 15:56 | 63.24597 | -18.25712 | 36404 ft | 518 kts | 115° |
| 2026-05-07 15:56 | 63.20419 | -18.07168 | 36818 ft | 520 kts | 115° |
| 2026-05-07 15:56 | 63.13963 | -17.78835 | 37112 ft | 508 kts | 116° |
| 2026-05-07 15:57 | 63.07613 | -17.51316 | 37097 ft | 499 kts | 116° |
| 2026-05-07 15:57 | 62.95132 | -16.98245 | 37123 ft | 493 kts | 117° |
| 2026-05-07 15:58 | 62.82020 | -16.43841 | 37112 ft | 508 kts | 118° |
| 2026-05-07 15:58 | 62.68709 | -15.89965 | 37025 ft | 499 kts | 119° |
| 2026-05-07 15:59 | 62.55528 | -15.37879 | 37042 ft | 497 kts | 119° |
| 2026-05-07 15:59 | 62.48697 | -15.11365 | 37065 ft | 512 kts | 120° |
| 2026-05-07 15:59 | 62.41710 | -14.84557 | 36980 ft | 509 kts | 120° |
| 2026-05-07 16:00 | 62.27939 | -14.32661 | 36989 ft | 512 kts | 121° |
| 2026-05-07 16:00 | 62.13235 | -13.78542 | 36937 ft | 523 kts | 121° |
| 2026-05-07 16:01 | 61.98430 | -13.25325 | 36840 ft | 519 kts | 122° |
| 2026-05-07 16:01 | 61.83743 | -12.73755 | 36843 ft | 508 kts | 123° |
| 2026-05-07 16:02 | 61.68826 | -12.22529 | 36799 ft | 519 kts | 124° |
| 2026-05-07 16:02 | 61.53454 | -11.70930 | 36718 ft | 520 kts | 124° |
| 2026-05-07 16:03 | 61.38133 | -11.20635 | 36640 ft | 506 kts | 125° |
| 2026-05-07 16:03 | 61.22769 | -10.71288 | 36629 ft | 516 kts | 126° |
| 2026-05-07 16:04 | 61.06881 | -10.21309 | 36593 ft | 520 kts | 126° |
| 2026-05-07 16:04 | 60.98243 | -9.98049 | 36528 ft | 508 kts | 139° |
| 2026-05-07 16:04 | 60.87218 | -9.80661 | 36576 ft | 497 kts | 147° |
| 2026-05-07 16:05 | 60.64802 | -9.47345 | 36609 ft | 500 kts | 147° |
| 2026-05-07 16:05 | 60.41666 | -9.16539 | 36596 ft | 501 kts | 151° |
| 2026-05-07 16:06 | 60.18133 | -8.86428 | 36596 ft | 501 kts | 151° |
| 2026-05-07 16:06 | 59.94591 | -8.56818 | 36613 ft | 500 kts | 152° |
| 2026-05-07 16:07 | 59.71067 | -8.27727 | 36623 ft | 499 kts | 152° |
| 2026-05-07 16:07 | 59.47540 | -7.99116 | 36642 ft | 498 kts | 153° |
| 2026-05-07 16:08 | 59.23946 | -7.70895 | 36662 ft | 497 kts | 153° |
| 2026-05-07 16:08 | 59.00323 | -7.43098 | 36689 ft | 496 kts | 154° |
| 2026-05-07 16:09 | 58.76720 | -7.15772 | 36709 ft | 495 kts | 154° |
| 2026-05-07 16:09 | 58.53136 | -6.88902 | 36724 ft | 493 kts | 154° |
| 2026-05-07 16:10 | 58.29607 | -6.62514 | 36767 ft | 491 kts | 155° |
| 2026-05-07 16:10 | 58.06053 | -6.36508 | 36760 ft | 492 kts | 155° |
| 2026-05-07 16:11 | 57.82527 | -6.10924 | 36802 ft | 491 kts | 155° |
| 2026-05-07 16:11 | 57.58813 | -5.85531 | 36820 ft | 492 kts | 155° |
| 2026-05-07 16:12 | 57.40486 | -5.66165 | 36819 ft | 493 kts | 155° |
| 2026-05-07 16:12 | 57.16869 | -5.41539 | 36813 ft | 493 kts | 155° |
| 2026-05-07 16:13 | 56.92238 | -5.19850 | 36871 ft | 488 kts | 162° |
| 2026-05-07 16:13 | 56.67120 | -5.01511 | 36862 ft | 489 kts | 162° |
| 2026-05-07 16:14 | 56.41919 | -4.83311 | 36911 ft | 487 kts | 162° |
| 2026-05-07 16:14 | 56.16719 | -4.65371 | 36922 ft | 488 kts | 161° |
| 2026-05-07 16:15 | 55.91476 | -4.47648 | 36927 ft | 488 kts | 161° |
| 2026-05-07 16:15 | 55.67406 | -4.25168 | 36908 ft | 491 kts | 154° |
| 2026-05-07 16:16 | 55.43488 | -4.01863 | 36902 ft | 492 kts | 153° |
| 2026-05-07 16:16 | 55.19603 | -3.78899 | 36962 ft | 491 kts | 155° |
| 2026-05-07 16:17 | 54.95049 | -3.58053 | 36971 ft | 491 kts | 155° |
| 2026-05-07 16:17 | 54.70477 | -3.37272 | 36979 ft | 491 kts | 155° |
| 2026-05-07 16:18 | 54.46035 | -3.16889 | 36974 ft | 493 kts | 155° |
| 2026-05-07 16:18 | 54.21347 | -2.96570 | 36989 ft | 493 kts | 155° |
| 2026-05-07 16:19 | 53.96282 | -2.78618 | 37000 ft | 492 kts | 163° |
| 2026-05-07 16:19 | 53.89748 | -2.75220 | 37001 ft | 492 kts | 164° |
| 2026-05-07 16:20 | 53.83216 | -2.71849 | 36994 ft | 492 kts | 163° |
| 2026-05-07 16:20 | 53.76690 | -2.68439 | 37005 ft | 493 kts | 163° |
| 2026-05-07 16:21 | 53.70138 | -2.65000 | 37001 ft | 493 kts | 163° |
| 2026-05-07 16:21 | 53.50413 | -2.54712 | 37005 ft | 495 kts | 163° |
| 2026-05-07 16:22 | 53.24161 | -2.41183 | 37011 ft | 495 kts | 164° |
| 2026-05-07 16:22 | 53.01593 | -2.29307 | 36992 ft | 498 kts | 154° |
| 2026-05-07 16:23 | 52.95698 | -2.23270 | 37022 ft | 499 kts | 147° |
| 2026-05-07 16:23 | 52.90830 | -2.17853 | 37019 ft | 500 kts | 148° |
| 2026-05-07 16:25 | 52.90458 | -2.17443 | 37028 ft | 500 kts | 148° |
| 2026-05-07 16:26 | 52.84622 | -2.11147 | 36592 ft | 508 kts | 149° |
| 2026-05-07 16:26 | 52.81654 | -2.08031 | 36075 ft | 517 kts | 149° |
| 2026-05-07 16:26 | 52.78605 | -2.04862 | 36220 ft | 502 kts | 149° |
| 2026-05-07 16:26 | 52.75709 | -2.01862 | 36044 ft | 487 kts | 149° |
| 2026-05-07 16:27 | 52.72878 | -1.98936 | 35693 ft | 477 kts | 149° |
| 2026-05-07 16:27 | 52.70084 | -1.96052 | 35040 ft | 474 kts | 149° |
| 2026-05-07 16:27 | 52.67288 | -1.93169 | 34248 ft | 474 kts | 149° |
| 2026-05-07 16:27 | 52.64503 | -1.90300 | 33329 ft | 476 kts | 149° |
| 2026-05-07 16:28 | 52.61728 | -1.87444 | 32311 ft | 477 kts | 149° |
| 2026-05-07 16:28 | 52.58904 | -1.84539 | 31287 ft | 480 kts | 149° |
| 2026-05-07 16:28 | 52.56042 | -1.81599 | 30263 ft | 482 kts | 149° |
| 2026-05-07 16:28 | 52.53212 | -1.78694 | 29445 ft | 478 kts | 149° |
| 2026-05-07 16:29 | 52.50430 | -1.75842 | 28757 ft | 470 kts | 149° |
| 2026-05-07 16:29 | 52.47666 | -1.73016 | 28091 ft | 464 kts | 149° |
| 2026-05-07 16:29 | 52.44958 | -1.70251 | 27400 ft | 459 kts | 149° |
| 2026-05-07 16:29 | 52.42268 | -1.67508 | 26671 ft | 456 kts | 149° |
| 2026-05-07 16:30 | 52.39579 | -1.64771 | 25962 ft | 453 kts | 150° |
| 2026-05-07 16:30 | 52.36916 | -1.62067 | 25298 ft | 449 kts | 150° |
| 2026-05-07 16:30 | 52.34272 | -1.59384 | 24673 ft | 446 kts | 150° |
| 2026-05-07 16:30 | 52.31669 | -1.56745 | 24090 ft | 442 kts | 150° |
| 2026-05-07 16:31 | 52.29059 | -1.54103 | 23458 ft | 439 kts | 150° |
| 2026-05-07 16:31 | 52.26472 | -1.51488 | 22772 ft | 435 kts | 150° |
| 2026-05-07 16:31 | 52.23926 | -1.48918 | 22143 ft | 431 kts | 150° |
| 2026-05-07 16:31 | 52.21397 | -1.46343 | 21535 ft | 427 kts | 148° |
| 2026-05-07 16:32 | 52.19027 | -1.43437 | 20903 ft | 425 kts | 142° |
| 2026-05-07 16:32 | 52.16809 | -1.40297 | 20290 ft | 422 kts | 139° |
| 2026-05-07 16:32 | 52.14648 | -1.37117 | 19718 ft | 418 kts | 139° |